createdAt,value
2022-12-25T00:00:31.360Z,5.57
2022-12-25T00:02:59.742Z,4.10
2022-12-25T00:05:28.413Z,6.50
2022-12-25T00:07:56.677Z,3.80
2022-12-25T00:10:25.298Z,3.27
2022-12-25T00:12:53.595Z,5.63
2022-12-25T00:15:23.272Z,5.07
2022-12-25T00:17:51.536Z,5.10
2022-12-25T00:20:19.981Z,4.53
2022-12-25T00:22:48.247Z,3.47
2022-12-25T00:25:16.542Z,4.33
2022-12-25T00:27:44.796Z,4.50
2022-12-25T00:30:13.833Z,4.93
2022-12-25T00:32:43.399Z,3.40
2022-12-25T00:35:11.810Z,4.97
2022-12-25T00:37:40.068Z,5.13
2022-12-25T00:40:10.274Z,3.77
2022-12-25T00:42:38.501Z,5.23
2022-12-25T00:45:07.899Z,3.33
2022-12-25T00:47:36.168Z,5.50
2022-12-25T00:50:07.691Z,5.40
2022-12-25T00:52:36.017Z,5.27
2022-12-25T00:55:04.334Z,7.10
2022-12-25T00:57:33.083Z,5.07
2022-12-25T01:00:01.372Z,6.83
2022-12-25T01:02:29.802Z,6.37
2022-12-25T01:04:58.847Z,9.00
2022-12-25T01:07:28.838Z,4.90
2022-12-25T01:10:14.755Z,4.37
2022-12-25T01:12:44.717Z,3.17
2022-12-25T01:15:14.132Z,6.43
2022-12-25T01:17:43.124Z,4.53
2022-12-25T01:20:13.510Z,4.87
2022-12-25T01:22:43.352Z,5.27
2022-12-25T01:25:12.894Z,5.20
2022-12-25T01:27:42.761Z,4.07
2022-12-25T01:30:12.606Z,4.40
2022-12-25T01:32:40.860Z,4.03
2022-12-25T01:35:09.901Z,7.40
2022-12-25T01:37:38.194Z,5.00
2022-12-25T01:40:10.220Z,6.07
2022-12-25T01:42:38.729Z,5.53
2022-12-25T01:45:43.516Z,3.60
2022-12-25T01:48:17.952Z,5.97
2022-12-25T01:50:51.851Z,6.60
2022-12-25T01:53:20.222Z,5.07
2022-12-25T01:55:55.581Z,2.87
2022-12-25T01:58:24.375Z,4.80
2022-12-25T02:00:53.285Z,3.90
2022-12-25T02:03:22.451Z,3.33
2022-12-25T02:05:51.962Z,4.70
2022-12-25T02:08:22.157Z,4.90
2022-12-25T02:10:51.840Z,4.20
2022-12-25T02:13:21.592Z,2.93
2022-12-25T02:16:02.509Z,6.03
2022-12-25T02:18:41.671Z,5.53
2022-12-25T02:21:31.540Z,3.33
2022-12-25T02:24:24.254Z,3.47
2022-12-25T02:27:17.507Z,4.40
2022-12-25T02:29:55.123Z,2.73
2022-12-25T02:32:29.935Z,3.30
2022-12-25T02:35:03.772Z,5.07
2022-12-25T02:37:37.826Z,3.70
2022-12-25T02:40:15.126Z,2.93
2022-12-25T02:43:06.500Z,3.60
2022-12-25T02:45:59.405Z,3.33
2022-12-25T02:48:50.870Z,3.03
2022-12-25T02:51:39.861Z,3.80
2022-12-25T02:54:31.887Z,3.93
2022-12-25T02:57:21.283Z,4.93
2022-12-25T03:00:08.983Z,3.53
2022-12-25T03:02:58.494Z,2.77
2022-12-25T03:05:46.627Z,2.60
2022-12-25T03:08:20.399Z,2.90
2022-12-25T03:11:15.860Z,2.77
2022-12-25T03:13:48.095Z,2.60
2022-12-25T03:16:33.853Z,2.77
2022-12-25T03:19:25.038Z,2.57
2022-12-25T03:22:12.077Z,5.40
2022-12-25T03:24:58.113Z,3.97
2022-12-25T03:27:27.217Z,3.20
2022-12-25T03:30:13.099Z,2.97
2022-12-25T03:32:49.701Z,7.83
2022-12-25T03:35:26.527Z,5.90
2022-12-25T03:38:28.646Z,3.83
2022-12-25T03:41:50.679Z,3.77
2022-12-25T03:44:43.652Z,4.43
2022-12-25T03:47:41.607Z,3.10
2022-12-25T03:50:36.368Z,3.23
2022-12-25T03:53:28.179Z,2.40
2022-12-25T03:56:14.993Z,3.50
2022-12-25T03:59:09.981Z,2.60
2022-12-25T04:01:55.575Z,2.60
2022-12-25T04:04:41.359Z,4.83
2022-12-25T04:07:28.608Z,3.67
2022-12-25T04:10:14.210Z,2.47
2022-12-25T04:12:59.847Z,2.60
2022-12-25T04:15:45.674Z,3.03
2022-12-25T04:18:31.236Z,4.00
2022-12-25T04:21:16.710Z,3.90
2022-12-25T04:24:03.933Z,2.37
2022-12-25T04:26:49.623Z,2.40
2022-12-25T04:29:35.136Z,2.53
2022-12-25T04:32:21.082Z,2.30
2022-12-25T04:35:06.655Z,4.47
2022-12-25T04:37:34.936Z,4.67
2022-12-25T04:40:05.716Z,5.30
2022-12-25T04:42:34.010Z,3.37
2022-12-25T04:45:02.267Z,2.30
2022-12-25T04:47:30.554Z,3.77
2022-12-25T04:49:58.798Z,5.30
2022-12-25T04:52:27.076Z,3.33
2022-12-25T04:54:55.284Z,3.73
2022-12-25T04:57:24.848Z,6.23
2022-12-25T04:59:53.138Z,2.40
2022-12-25T05:02:21.579Z,2.57
2022-12-25T05:04:49.885Z,3.30
2022-12-25T05:07:18.389Z,3.70
2022-12-25T05:09:46.680Z,2.80
2022-12-25T05:12:15.373Z,3.90
2022-12-25T05:14:44.973Z,5.57
2022-12-25T05:17:13.290Z,2.60
2022-12-25T05:19:41.569Z,2.73
2022-12-25T05:22:09.873Z,4.03
2022-12-25T05:24:38.072Z,3.07
2022-12-25T05:27:06.316Z,2.80
2022-12-25T05:29:34.572Z,2.53
2022-12-25T05:32:04.317Z,4.30
2022-12-25T05:34:32.672Z,3.73
2022-12-25T05:37:00.931Z,3.90
2022-12-25T05:39:29.214Z,5.93
2022-12-25T05:41:57.459Z,3.80
2022-12-25T05:44:25.863Z,4.67
2022-12-25T05:46:54.144Z,3.63
2022-12-25T05:49:23.887Z,4.30
2022-12-25T05:51:52.073Z,3.10
2022-12-25T05:54:20.303Z,3.50
2022-12-25T05:56:48.573Z,3.30
2022-12-25T05:59:16.865Z,4.17
2022-12-25T06:01:45.241Z,3.50
2022-12-25T06:04:13.617Z,5.73
2022-12-25T06:06:43.319Z,7.30
2022-12-25T06:09:14.225Z,3.60
2022-12-25T06:11:43.125Z,3.40
2022-12-25T06:14:14.219Z,4.20
2022-12-25T06:16:42.677Z,5.27
2022-12-25T06:19:10.971Z,3.60
2022-12-25T06:21:39.423Z,5.67
2022-12-25T06:24:09.353Z,3.83
2022-12-25T06:26:37.692Z,5.33
2022-12-25T06:29:06.036Z,4.50
2022-12-25T06:31:34.306Z,5.60
2022-12-25T06:34:02.590Z,5.30
2022-12-25T06:36:30.832Z,4.43
2022-12-25T06:39:02.418Z,4.13
2022-12-25T06:41:32.638Z,5.00
2022-12-25T06:44:02.564Z,4.93
2022-12-25T06:46:32.112Z,4.40
2022-12-25T06:49:01.180Z,4.40
2022-12-25T06:51:31.793Z,5.10
2022-12-25T06:54:03.706Z,7.20
2022-12-25T06:56:35.044Z,8.50
2022-12-25T06:59:05.782Z,5.07
2022-12-25T07:01:43.040Z,7.17
2022-12-25T07:04:18.624Z,6.93
2022-12-25T07:06:46.896Z,8.37
2022-12-25T07:09:15.099Z,5.03
2022-12-25T07:11:44.724Z,6.03
2022-12-25T07:14:23.731Z,6.40
2022-12-25T07:16:52.723Z,10.33
2022-12-25T07:19:20.949Z,8.43
2022-12-25T07:21:49.214Z,7.50
2022-12-25T07:24:21.152Z,9.57
2022-12-25T07:26:51.902Z,10.43
2022-12-25T07:29:20.501Z,14.10
2022-12-25T07:31:48.876Z,13.27
2022-12-25T07:34:19.182Z,13.30
2022-12-25T07:36:47.556Z,12.30
2022-12-25T07:39:16.346Z,12.90
2022-12-25T07:41:44.687Z,10.37
2022-12-25T07:44:14.396Z,11.33
2022-12-25T07:46:42.732Z,12.67
2022-12-25T07:49:11.150Z,11.43
2022-12-25T07:51:39.432Z,14.47
2022-12-25T07:54:08.071Z,12.40
2022-12-25T07:56:36.448Z,12.10
2022-12-25T07:59:04.705Z,8.13
2022-12-25T08:01:34.568Z,8.97
2022-12-25T08:04:03.930Z,6.33
2022-12-25T08:06:36.198Z,6.30
2022-12-25T08:09:08.315Z,35.77
2022-12-25T08:11:37.307Z,34.40
2022-12-25T08:14:07.972Z,26.90
2022-12-25T08:16:39.936Z,18.27
2022-12-25T08:19:08.350Z,13.37
2022-12-25T08:21:36.595Z,11.03
2022-12-25T08:24:05.674Z,8.87
2022-12-25T08:26:33.978Z,9.00
2022-12-25T08:29:02.285Z,8.57
2022-12-25T08:31:33.424Z,9.23
2022-12-25T08:34:04.982Z,9.33
2022-12-25T08:36:33.325Z,20.03
2022-12-25T08:39:03.378Z,19.00
2022-12-25T08:41:32.027Z,16.10
2022-12-25T08:44:00.331Z,12.13
2022-12-25T08:46:28.757Z,11.77
2022-12-25T08:48:57.447Z,9.83
2022-12-25T08:51:27.775Z,9.97
2022-12-25T08:54:01.139Z,11.07
2022-12-25T08:56:29.787Z,15.27
2022-12-25T08:58:58.141Z,19.37
2022-12-25T09:01:26.503Z,8.43
2022-12-25T09:03:54.850Z,8.33
2022-12-25T09:06:23.101Z,11.93
2022-12-25T09:08:52.755Z,9.70
2022-12-25T09:11:22.419Z,11.53
2022-12-25T09:13:51.081Z,6.73
2022-12-25T09:16:22.452Z,6.77
2022-12-25T09:18:51.264Z,8.90
2022-12-25T09:21:20.351Z,8.73
2022-12-25T09:23:48.969Z,6.63
2022-12-25T09:26:20.441Z,8.33
2022-12-25T09:28:52.288Z,7.30
2022-12-25T09:31:22.019Z,8.77
2022-12-25T09:33:51.080Z,6.73
2022-12-25T09:36:21.367Z,7.47
2022-12-25T09:38:49.717Z,7.30
2022-12-25T09:41:27.807Z,8.27
2022-12-25T09:44:02.513Z,6.73
2022-12-25T09:46:40.489Z,5.50
2022-12-25T09:49:19.272Z,6.23
2022-12-25T09:51:53.278Z,8.37
2022-12-25T09:54:27.583Z,7.90
2022-12-25T09:56:57.154Z,5.73
2022-12-25T09:59:27.798Z,6.17
2022-12-25T10:02:20.603Z,5.13
2022-12-25T10:05:09.137Z,7.60
2022-12-25T10:07:48.752Z,8.60
2022-12-25T10:10:34.242Z,8.63
2022-12-25T10:13:17.129Z,7.57
2022-12-25T10:15:55.366Z,5.03
2022-12-25T10:18:50.590Z,3.33
2022-12-25T10:21:20.594Z,3.80
2022-12-25T10:23:53.981Z,5.43
2022-12-25T10:26:25.426Z,12.80
2022-12-25T10:29:00.103Z,6.47
2022-12-25T10:31:31.791Z,5.77
2022-12-25T10:34:00.365Z,5.33
2022-12-25T10:36:30.708Z,5.03
2022-12-25T10:38:59.521Z,4.20
2022-12-25T10:41:50.726Z,4.97
2022-12-25T10:44:24.493Z,5.33
2022-12-25T10:46:56.201Z,4.47
2022-12-25T10:49:27.046Z,4.07
2022-12-25T10:51:55.390Z,4.13
2022-12-25T10:54:26.834Z,4.13
2022-12-25T10:56:57.615Z,4.43
2022-12-25T10:59:29.342Z,5.20
2022-12-25T11:02:06.216Z,6.47
2022-12-25T11:04:37.007Z,5.20
2022-12-25T11:07:09.311Z,4.50
2022-12-25T11:09:37.633Z,3.53
2022-12-25T11:12:07.215Z,4.70
2022-12-25T11:14:36.853Z,3.67
2022-12-25T11:17:11.659Z,3.43
2022-12-25T11:19:39.924Z,2.67
2022-12-25T11:22:19.791Z,3.70
2022-12-25T11:24:48.031Z,4.40
2022-12-25T11:27:26.793Z,2.47
2022-12-25T11:30:01.189Z,3.10
2022-12-25T11:32:33.063Z,4.57
2022-12-25T11:35:04.347Z,5.07
2022-12-25T11:37:39.032Z,3.97
2022-12-25T11:40:15.111Z,4.37
2022-12-25T11:42:48.604Z,3.80
2022-12-25T11:45:22.047Z,5.30
2022-12-25T11:47:53.578Z,5.27
2022-12-25T11:50:28.924Z,6.83
2022-12-25T11:52:58.520Z,3.53
2022-12-25T11:55:37.394Z,5.13
2022-12-25T11:58:14.975Z,5.37
2022-12-25T12:00:47.811Z,5.20
2022-12-25T12:03:22.134Z,4.27
2022-12-25T12:05:55.648Z,4.67
2022-12-25T12:08:23.990Z,5.60
2022-12-25T12:11:16.767Z,4.73
2022-12-25T12:14:06.858Z,7.73
2022-12-25T12:16:37.559Z,4.20
2022-12-25T12:19:14.243Z,4.77
2022-12-25T12:21:44.186Z,4.40
2022-12-25T12:24:18.084Z,3.97
2022-12-25T12:26:48.624Z,4.60
2022-12-25T12:29:28.328Z,3.10
2022-12-25T12:32:02.361Z,4.03
2022-12-25T12:34:34.802Z,4.67
2022-12-25T12:37:06.673Z,2.80
2022-12-25T12:39:39.445Z,5.10
2022-12-25T12:42:15.608Z,4.53
2022-12-25T12:44:44.302Z,6.50
2022-12-25T12:47:38.382Z,4.73
2022-12-25T12:50:09.085Z,3.17
2022-12-25T12:52:41.017Z,4.93
2022-12-25T12:55:13.128Z,4.83
2022-12-25T12:57:42.883Z,5.97
2022-12-25T13:00:19.739Z,5.17
2022-12-25T13:03:15.309Z,5.57
2022-12-25T13:05:48.266Z,3.67
2022-12-25T13:08:33.273Z,3.90
2022-12-25T13:11:19.712Z,4.30
2022-12-25T13:13:51.077Z,3.07
2022-12-25T13:16:27.796Z,3.20
2022-12-25T13:18:58.511Z,6.67
2022-12-25T13:21:29.740Z,4.83
2022-12-25T13:24:00.345Z,8.80
2022-12-25T13:26:29.961Z,7.80
2022-12-25T13:28:58.623Z,3.80
2022-12-25T13:31:29.660Z,8.17
2022-12-25T13:34:02.712Z,4.93
2022-12-25T13:36:37.890Z,3.90
2022-12-25T13:39:10.317Z,3.77
2022-12-25T13:42:01.569Z,5.10
2022-12-25T13:44:37.943Z,6.57
2022-12-25T13:47:22.986Z,4.27
2022-12-25T13:49:55.303Z,6.10
2022-12-25T13:52:32.868Z,5.67
2022-12-25T13:55:04.483Z,6.57
2022-12-25T13:57:38.359Z,7.00
2022-12-25T14:00:19.138Z,5.83
2022-12-25T14:02:48.252Z,4.80
2022-12-25T14:05:28.930Z,4.63
2022-12-25T14:08:00.476Z,5.30
2022-12-25T14:10:31.366Z,8.50
2022-12-25T14:13:05.108Z,4.93
2022-12-25T14:15:36.374Z,7.67
2022-12-25T14:18:04.918Z,7.43
2022-12-25T14:20:39.131Z,4.70
2022-12-25T14:23:08.721Z,6.97
2022-12-25T14:25:43.036Z,6.23
2022-12-25T14:28:21.449Z,5.33
2022-12-25T14:30:49.960Z,8.53
2022-12-25T14:33:22.475Z,8.90
2022-12-25T14:35:53.525Z,8.23
2022-12-25T14:38:27.790Z,6.63
2022-12-25T14:41:03.580Z,4.63
2022-12-25T14:43:34.519Z,7.67
2022-12-25T14:46:06.213Z,4.30
2022-12-25T14:48:34.803Z,4.70
2022-12-25T14:51:08.564Z,5.67
2022-12-25T14:53:40.978Z,4.23
2022-12-25T14:56:10.619Z,7.00
2022-12-25T14:58:44.927Z,3.93
2022-12-25T15:01:23.116Z,5.37
2022-12-25T15:03:51.556Z,3.37
2022-12-25T15:06:24.785Z,3.63
2022-12-25T15:09:01.812Z,4.70
2022-12-25T15:11:30.267Z,5.17
2022-12-25T15:13:59.230Z,7.40
2022-12-25T15:16:31.692Z,3.13
2022-12-25T15:19:01.565Z,4.70
2022-12-25T15:21:35.293Z,4.50
2022-12-25T15:24:03.819Z,7.53
2022-12-25T15:26:33.651Z,4.10
2022-12-25T15:29:02.064Z,3.40
2022-12-25T15:31:33.211Z,7.77
2022-12-25T15:34:04.956Z,4.77
2022-12-25T15:36:35.042Z,5.10
2022-12-25T15:39:03.355Z,5.93
2022-12-25T15:41:53.106Z,17.77
2022-12-25T15:44:21.585Z,15.60
2022-12-25T15:46:50.054Z,15.40
2022-12-25T15:49:18.966Z,12.17
2022-12-25T15:51:48.771Z,17.67
2022-12-25T15:54:17.150Z,9.20
2022-12-25T15:56:49.394Z,14.30
2022-12-25T15:59:19.722Z,17.93
2022-12-25T16:01:52.039Z,20.43
2022-12-25T16:04:20.935Z,14.93
2022-12-25T16:06:51.909Z,17.00
2022-12-25T16:09:21.638Z,9.67
2022-12-25T16:11:50.904Z,8.00
2022-12-25T16:14:19.567Z,10.47
2022-12-25T16:16:47.915Z,15.77
2022-12-25T16:19:16.193Z,10.73
2022-12-25T16:21:48.090Z,12.37
2022-12-25T16:24:17.751Z,6.63
2022-12-25T16:26:46.016Z,6.60
2022-12-25T16:29:14.306Z,10.90
2022-12-25T16:31:42.806Z,8.93
2022-12-25T16:34:11.667Z,9.27
2022-12-25T16:36:40.172Z,6.47
2022-12-25T16:39:08.574Z,9.30
2022-12-25T16:41:38.162Z,9.03
2022-12-25T16:44:09.487Z,9.93
2022-12-25T16:46:38.613Z,8.40
2022-12-25T16:49:07.334Z,5.57
2022-12-25T16:51:35.615Z,7.33
2022-12-25T16:54:03.883Z,6.97
2022-12-25T16:56:32.450Z,7.93
2022-12-25T16:59:02.162Z,6.40
2022-12-25T17:01:30.648Z,7.13
2022-12-25T17:04:02.306Z,7.77
2022-12-25T17:06:30.810Z,8.47
2022-12-25T17:09:02.242Z,4.47
2022-12-25T17:11:31.113Z,9.03
2022-12-25T17:14:03.576Z,7.87
2022-12-25T17:16:34.924Z,9.10
2022-12-25T17:19:07.988Z,24.90
2022-12-25T17:21:38.174Z,13.60
2022-12-25T17:24:07.476Z,11.03
2022-12-25T17:26:35.807Z,9.47
2022-12-25T17:29:05.522Z,6.03
2022-12-25T17:31:34.771Z,9.23
2022-12-25T17:34:03.559Z,10.93
2022-12-25T17:36:32.473Z,14.00
2022-12-25T17:39:01.748Z,9.90
2022-12-25T17:41:30.224Z,8.50
2022-12-25T17:43:58.525Z,9.13
2022-12-25T17:46:30.765Z,8.67
2022-12-25T17:49:01.621Z,9.30
2022-12-25T17:51:31.662Z,6.20
2022-12-25T17:54:03.218Z,5.47
2022-12-25T17:56:32.755Z,6.80
2022-12-25T17:59:06.732Z,7.63
2022-12-25T18:01:39.908Z,8.20
2022-12-25T18:04:08.529Z,7.83
2022-12-25T18:06:37.879Z,11.27
2022-12-25T18:09:07.342Z,13.47
2022-12-25T18:11:36.976Z,12.40
2022-12-25T18:14:07.427Z,27.20
2022-12-25T18:16:40.307Z,21.23
2022-12-25T18:19:09.755Z,14.27
2022-12-25T18:21:38.382Z,10.90
2022-12-25T18:24:08.534Z,16.27
2022-12-25T18:26:37.138Z,12.63
2022-12-25T18:29:07.001Z,12.30
2022-12-25T18:31:37.213Z,11.77
2022-12-25T18:34:05.522Z,12.03
2022-12-25T18:36:33.994Z,10.37
2022-12-25T18:39:02.229Z,10.43
2022-12-25T18:41:30.740Z,10.43
2022-12-25T18:44:01.644Z,8.17
2022-12-25T18:46:29.966Z,12.40
2022-12-25T18:48:59.653Z,16.80
2022-12-25T18:51:36.398Z,10.50
2022-12-25T18:54:05.518Z,10.53
2022-12-25T18:56:34.125Z,14.40
2022-12-25T18:59:02.648Z,14.30
2022-12-25T19:01:31.120Z,11.63
2022-12-25T19:04:05.126Z,11.83
2022-12-25T19:06:34.214Z,15.57
2022-12-25T19:09:08.706Z,12.13
2022-12-25T19:11:42.062Z,10.77
2022-12-25T19:14:14.092Z,13.17
2022-12-25T19:16:42.435Z,10.77
2022-12-25T19:19:12.148Z,9.83
2022-12-25T19:21:40.430Z,7.83
2022-12-25T19:24:08.921Z,7.37
2022-12-25T19:26:37.725Z,12.87
2022-12-25T19:29:06.092Z,14.87
2022-12-25T19:31:34.739Z,11.80
2022-12-25T19:34:03.064Z,16.20
2022-12-25T19:36:32.678Z,16.53
2022-12-25T19:39:00.944Z,18.30
2022-12-25T19:41:29.307Z,20.17
2022-12-25T19:43:57.552Z,17.80
2022-12-25T19:46:28.742Z,14.53
2022-12-25T19:48:59.068Z,16.53
2022-12-25T19:51:29.731Z,13.47
2022-12-25T19:53:59.418Z,18.37
2022-12-25T19:56:29.591Z,16.03
2022-12-25T19:58:58.724Z,16.23
2022-12-25T20:01:29.126Z,14.50
2022-12-25T20:03:57.751Z,14.47
2022-12-25T20:06:29.840Z,13.70
2022-12-25T20:09:01.716Z,26.87
2022-12-25T20:11:31.877Z,26.23
2022-12-25T20:14:00.271Z,16.40
2022-12-25T20:16:28.714Z,14.03
2022-12-25T20:18:58.808Z,12.20
2022-12-25T20:21:27.710Z,11.80
2022-12-25T20:23:57.897Z,14.60
2022-12-25T20:26:29.189Z,10.63
2022-12-25T20:28:57.735Z,10.27
2022-12-25T20:31:29.839Z,10.70
2022-12-25T20:34:01.966Z,10.70
2022-12-25T20:36:36.412Z,10.53
2022-12-25T20:39:10.086Z,34.03
2022-12-25T20:41:39.639Z,15.90
2022-12-25T20:44:10.086Z,26.07
2022-12-25T20:46:38.538Z,17.30
2022-12-25T20:49:06.846Z,10.57
2022-12-25T20:51:35.440Z,9.73
2022-12-25T20:54:09.422Z,11.33
2022-12-25T20:56:38.668Z,7.87
2022-12-25T20:59:06.979Z,8.50
2022-12-25T21:01:35.351Z,7.80
2022-12-25T21:04:03.791Z,6.83
2022-12-25T21:06:32.080Z,8.83
2022-12-25T21:09:00.802Z,8.30
2022-12-25T21:11:31.341Z,11.07
2022-12-25T21:13:59.851Z,8.57
2022-12-25T21:16:28.691Z,7.37
2022-12-25T21:18:56.974Z,10.47
2022-12-25T21:21:25.826Z,21.63
2022-12-25T21:23:57.679Z,7.80
2022-12-25T21:26:31.361Z,7.10
2022-12-25T21:29:03.181Z,8.17
2022-12-25T21:31:54.258Z,6.87
2022-12-25T21:34:21.551Z,7.23
2022-12-25T21:36:50.125Z,7.43
2022-12-25T21:39:18.691Z,7.27
2022-12-25T21:41:48.278Z,6.37
2022-12-25T21:44:16.554Z,8.63
2022-12-25T21:46:45.012Z,13.43
2022-12-25T21:49:33.269Z,9.43
2022-12-25T21:52:09.333Z,6.47
2022-12-25T21:54:38.297Z,56.83
2022-12-25T21:57:08.014Z,48.63
2022-12-25T21:59:36.302Z,33.80
2022-12-25T22:02:11.212Z,30.07
2022-12-25T22:04:40.130Z,22.03
2022-12-25T22:07:19.411Z,16.70
2022-12-25T22:09:49.018Z,14.97
2022-12-25T22:12:38.288Z,12.60
2022-12-25T22:15:10.001Z,14.57
2022-12-25T22:17:58.144Z,13.10
2022-12-25T22:20:30.125Z,12.30
2022-12-25T22:22:58.684Z,12.13
2022-12-25T22:25:27.292Z,10.43
2022-12-25T22:27:57.292Z,13.47
2022-12-25T22:30:28.596Z,8.20
2022-12-25T22:32:57.503Z,9.63
2022-12-25T22:35:35.382Z,7.77
2022-12-25T22:38:03.616Z,12.17
2022-12-25T22:40:32.236Z,9.30
2022-12-25T22:43:01.846Z,10.07
2022-12-25T22:45:30.132Z,6.87
2022-12-25T22:47:58.391Z,8.37
2022-12-25T22:50:26.663Z,7.80
2022-12-25T22:52:54.969Z,9.90
2022-12-25T22:55:23.210Z,12.63
2022-12-25T22:57:52.168Z,9.80
2022-12-25T23:00:21.906Z,9.20
2022-12-25T23:02:50.377Z,9.33
2022-12-25T23:05:19.043Z,8.40
2022-12-25T23:07:47.364Z,8.37
2022-12-25T23:10:15.592Z,7.97
2022-12-25T23:13:01.062Z,7.13
2022-12-25T23:15:31.482Z,10.27
2022-12-25T23:18:17.242Z,9.63
2022-12-25T23:21:03.126Z,9.97
2022-12-25T23:23:48.814Z,10.03
2022-12-25T23:26:19.902Z,10.60
2022-12-25T23:29:10.978Z,13.00
2022-12-25T23:31:42.799Z,10.73
2022-12-25T23:34:11.817Z,12.77
2022-12-25T23:36:40.079Z,9.57
2022-12-25T23:39:10.413Z,10.77
2022-12-25T23:41:39.977Z,10.63
2022-12-25T23:44:08.974Z,12.03
2022-12-25T23:46:38.532Z,12.50
2022-12-25T23:49:09.539Z,8.57
2022-12-25T23:51:38.806Z,10.77
2022-12-25T23:54:07.735Z,9.27
2022-12-25T23:56:36.503Z,8.87
2022-12-25T23:59:05.567Z,12.27
